createdAt,value
2022-11-06T00:01:32.962Z,9.20
2022-11-06T00:10:19.031Z,9.00
2022-11-06T00:14:28.603Z,9.00
2022-11-06T00:18:38.877Z,8.90
2022-11-06T00:22:47.601Z,8.80
2022-11-06T00:26:56.230Z,8.80
2022-11-06T00:31:06.881Z,8.80
2022-11-06T00:35:15.637Z,8.70
2022-11-06T00:39:24.164Z,8.70
2022-11-06T00:43:33.029Z,8.60
2022-11-06T00:47:41.970Z,8.60
2022-11-06T00:51:50.567Z,8.60
2022-11-06T00:56:10.556Z,8.60
2022-11-06T01:00:20.419Z,8.60
2022-11-06T01:04:29.053Z,8.60
2022-11-06T01:08:38.460Z,8.60
2022-11-06T01:12:47.132Z,8.60
2022-11-06T01:17:15.104Z,8.50
2022-11-06T01:21:29.913Z,8.50
2022-11-06T01:25:38.708Z,8.50
2022-11-06T01:29:47.339Z,8.50
2022-11-06T01:33:57.705Z,8.50
2022-11-06T01:38:06.271Z,8.50
2022-11-06T01:42:16.707Z,8.50
2022-11-06T01:46:27.885Z,8.50
2022-11-06T01:50:36.626Z,8.50
2022-11-06T01:54:47.507Z,8.60
2022-11-06T01:58:56.789Z,8.70
2022-11-06T02:03:05.687Z,8.70
2022-11-06T02:07:14.491Z,8.70
2022-11-06T02:11:23.147Z,8.70
2022-11-06T02:16:04.507Z,8.70
2022-11-06T02:20:31.061Z,8.70
2022-11-06T02:24:56.331Z,8.60
2022-11-06T02:29:13.544Z,8.70
2022-11-06T02:33:25.148Z,8.70
2022-11-06T02:37:37.108Z,8.70
2022-11-06T02:41:48.660Z,8.80
2022-11-06T02:46:18.086Z,8.80
2022-11-06T02:50:47.866Z,8.90
2022-11-06T02:55:14.875Z,8.90
2022-11-06T02:59:29.226Z,9.00
2022-11-06T03:03:40.203Z,9.00
2022-11-06T03:07:57.112Z,9.00
2022-11-06T03:12:17.313Z,9.00
2022-11-06T03:16:56.557Z,9.00
2022-11-06T03:21:10.911Z,9.00
2022-11-06T03:25:31.708Z,9.00
2022-11-06T03:29:43.442Z,9.00
2022-11-06T03:33:55.548Z,9.00
2022-11-06T03:38:10.580Z,9.00
2022-11-06T03:42:25.092Z,9.00
2022-11-06T03:46:37.166Z,9.10
2022-11-06T03:51:06.629Z,9.10
2022-11-06T03:55:21.288Z,9.10
2022-11-06T03:59:32.823Z,9.20
2022-11-06T04:03:44.618Z,9.20
2022-11-06T04:08:14.377Z,9.20
2022-11-06T04:12:44.836Z,9.20
2022-11-06T04:17:13.758Z,9.20
2022-11-06T04:21:31.399Z,9.20
2022-11-06T04:26:23.751Z,9.20
2022-11-06T04:30:35.455Z,9.10
2022-11-06T04:35:08.390Z,9.10
2022-11-06T04:39:26.195Z,9.10
2022-11-06T04:43:50.093Z,9.10
2022-11-06T04:48:11.427Z,9.10
2022-11-06T04:52:23.313Z,9.00
2022-11-06T04:56:35.355Z,9.00
2022-11-06T05:00:47.747Z,9.00
2022-11-06T05:05:15.779Z,9.00
2022-11-06T05:09:25.340Z,9.00
2022-11-06T05:13:33.900Z,8.90
2022-11-06T05:17:42.447Z,8.90
2022-11-06T05:22:09.450Z,8.80
2022-11-06T05:26:18.219Z,8.80
2022-11-06T05:30:27.768Z,8.80
2022-11-06T05:34:36.399Z,8.70
2022-11-06T05:39:04.379Z,8.70
2022-11-06T05:43:13.314Z,8.70
2022-11-06T05:47:21.852Z,8.60
2022-11-06T05:51:49.825Z,8.60
2022-11-06T05:55:58.554Z,8.60
2022-11-06T06:00:08.438Z,8.50
2022-11-06T06:04:17.450Z,8.50
2022-11-06T06:08:26.004Z,8.50
2022-11-06T06:12:34.914Z,8.50
2022-11-06T06:16:43.541Z,8.50
2022-11-06T06:20:52.068Z,8.40
2022-11-06T06:25:00.745Z,8.40
2022-11-06T06:29:10.453Z,8.40
2022-11-06T06:33:19.081Z,8.40
2022-11-06T06:37:27.711Z,8.40
2022-11-06T06:41:36.241Z,8.40
2022-11-06T06:45:44.864Z,8.40
2022-11-06T06:49:53.341Z,8.40
2022-11-06T06:54:02.121Z,8.50
2022-11-06T06:58:17.568Z,8.40
2022-11-06T07:02:21.954Z,8.40
2022-11-06T07:06:30.878Z,8.50
2022-11-06T07:10:39.505Z,8.50
2022-11-06T07:14:48.133Z,8.50
2022-11-06T07:18:57.060Z,8.50
2022-11-06T07:23:09.461Z,8.50
2022-11-06T07:27:17.985Z,8.50
2022-11-06T07:31:26.639Z,8.60
2022-11-06T07:35:36.012Z,8.60
2022-11-06T07:39:44.570Z,8.70
2022-11-06T07:43:53.243Z,8.70
2022-11-06T07:48:01.978Z,8.80
2022-11-06T07:52:10.542Z,8.90
2022-11-06T07:56:19.128Z,8.90
2022-11-06T08:00:28.096Z,9.00
2022-11-06T08:04:36.661Z,9.10
2022-11-06T08:08:45.220Z,9.20
2022-11-06T08:12:53.854Z,9.20
2022-11-06T08:17:02.341Z,9.20
2022-11-06T08:21:11.002Z,9.20
2022-11-06T08:25:19.642Z,9.30
2022-11-06T08:29:28.187Z,9.30
2022-11-06T08:33:38.962Z,9.50
2022-11-06T08:37:47.565Z,9.60
2022-11-06T08:41:56.209Z,9.70
2022-11-06T08:46:06.007Z,9.80
2022-11-06T08:50:14.541Z,9.90
2022-11-06T08:54:23.255Z,10.00
2022-11-06T08:58:31.975Z,10.00
2022-11-06T09:02:40.569Z,10.00
2022-11-06T09:06:49.108Z,10.10
2022-11-06T09:10:58.975Z,10.10
2022-11-06T09:15:08.239Z,10.20
2022-11-06T09:19:18.235Z,10.30
2022-11-06T09:23:26.812Z,10.30
2022-11-06T09:27:44.147Z,10.40
2022-11-06T09:31:54.177Z,10.40
2022-11-06T09:36:05.170Z,10.50
2022-11-06T09:40:23.928Z,10.60
2022-11-06T09:44:47.507Z,10.60
2022-11-06T09:49:01.665Z,10.70
2022-11-06T09:53:13.671Z,10.80
2022-11-06T09:57:37.492Z,10.90
2022-11-06T10:01:49.215Z,11.00
2022-11-06T10:05:58.061Z,11.10
2022-11-06T10:14:38.079Z,11.30
2022-11-06T10:18:52.471Z,11.30
2022-11-06T10:23:04.088Z,11.40
2022-11-06T10:27:18.328Z,11.50
2022-11-06T10:31:35.714Z,11.50
2022-11-06T10:36:05.728Z,11.50
2022-11-06T10:40:20.265Z,11.60
2022-11-06T10:44:32.165Z,11.60
2022-11-06T10:48:43.369Z,11.70
2022-11-06T10:52:57.819Z,11.70
2022-11-06T10:57:24.818Z,11.70
2022-11-06T11:01:33.499Z,11.70
2022-11-06T11:05:44.487Z,11.80
2022-11-06T11:09:53.050Z,11.70
2022-11-06T11:14:09.123Z,11.70
2022-11-06T11:18:32.311Z,11.70
2022-11-06T11:22:40.940Z,11.70
2022-11-06T11:26:52.315Z,11.80
2022-11-06T11:31:07.291Z,11.90
2022-11-06T11:35:18.995Z,11.90
2022-11-06T11:39:31.005Z,12.00
2022-11-06T11:43:40.681Z,11.90
2022-11-06T11:47:51.774Z,11.90
2022-11-06T11:52:03.440Z,11.90
2022-11-06T11:56:36.444Z,12.00
2022-11-06T12:00:31.567Z,12.00
2022-11-06T12:04:45.568Z,12.00
2022-11-06T12:08:56.398Z,12.00
2022-11-06T12:13:07.682Z,12.20
2022-11-06T12:17:22.571Z,12.30
2022-11-06T12:21:34.206Z,12.50
2022-11-06T12:25:45.327Z,12.50
2022-11-06T12:30:11.911Z,12.50
2022-11-06T12:34:41.397Z,12.30
2022-11-06T12:39:01.606Z,12.30
2022-11-06T12:43:35.610Z,12.20
2022-11-06T12:48:24.835Z,12.20
2022-11-06T12:53:06.222Z,12.20
2022-11-06T12:57:37.875Z,12.20
2022-11-06T13:02:01.759Z,12.10
2022-11-06T13:06:25.317Z,12.00
2022-11-06T13:10:57.423Z,12.00
2022-11-06T13:15:15.594Z,12.00
2022-11-06T13:19:42.223Z,12.00
2022-11-06T13:23:52.662Z,12.00
2022-11-06T13:28:19.526Z,12.10
2022-11-06T13:32:30.397Z,12.10
2022-11-06T13:36:39.168Z,12.20
2022-11-06T13:40:55.410Z,12.10
2022-11-06T13:45:04.918Z,12.10
2022-11-06T13:49:33.111Z,12.00
2022-11-06T13:53:59.700Z,12.00
2022-11-06T13:58:44.941Z,11.90
2022-11-06T14:03:17.328Z,11.90
2022-11-06T14:07:29.029Z,11.90
2022-11-06T14:11:43.662Z,11.90
2022-11-06T14:16:04.309Z,11.90
2022-11-06T14:20:35.743Z,11.90
2022-11-06T14:24:45.055Z,11.90
2022-11-06T14:28:53.692Z,11.80
2022-11-06T14:33:02.322Z,11.90
2022-11-06T14:37:31.113Z,11.90
2022-11-06T14:41:43.556Z,11.80
2022-11-06T14:46:05.327Z,11.80
2022-11-06T14:50:25.927Z,11.80
2022-11-06T14:54:38.000Z,11.80
2022-11-06T14:59:10.949Z,11.80
2022-11-06T15:03:49.275Z,11.70
2022-11-06T15:08:06.706Z,11.60
2022-11-06T15:12:10.165Z,11.60
2022-11-06T15:16:18.744Z,11.60
2022-11-06T15:20:30.631Z,11.50
2022-11-06T15:24:45.948Z,11.50
2022-11-06T15:29:03.471Z,11.40
2022-11-06T15:33:15.692Z,11.40
2022-11-06T15:37:47.768Z,11.30
2022-11-06T15:41:57.495Z,11.30
2022-11-06T15:46:26.843Z,11.10
2022-11-06T15:50:37.766Z,10.90
2022-11-06T15:54:48.748Z,10.80
2022-11-06T15:59:12.278Z,10.70
2022-11-06T16:03:47.942Z,10.70
2022-11-06T16:07:58.437Z,10.60
2022-11-06T16:12:07.702Z,10.50
2022-11-06T16:16:37.889Z,10.50
2022-11-06T16:20:52.561Z,10.30
2022-11-06T16:25:03.748Z,10.30
2022-11-06T16:29:24.167Z,10.20
2022-11-06T16:33:32.928Z,10.20
2022-11-06T16:37:41.486Z,10.20
2022-11-06T16:42:13.489Z,10.20
2022-11-06T16:46:22.118Z,10.10
2022-11-06T16:50:53.313Z,10.10
2022-11-06T16:55:17.478Z,10.00
2022-11-06T16:59:27.121Z,10.00
2022-11-06T17:03:41.695Z,10.00
2022-11-06T17:07:52.366Z,9.90
2022-11-06T17:12:02.783Z,9.90
2022-11-06T17:16:23.037Z,9.90
2022-11-06T17:20:32.801Z,9.90
2022-11-06T17:24:41.675Z,9.90
2022-11-06T17:28:50.287Z,9.90
2022-11-06T17:32:58.883Z,9.90
2022-11-06T17:37:08.539Z,9.80
2022-11-06T17:41:18.905Z,9.70
2022-11-06T17:45:27.636Z,9.70
2022-11-06T17:49:36.163Z,9.70
2022-11-06T17:53:44.791Z,9.60
2022-11-06T17:57:53.419Z,9.60
2022-11-06T18:02:40.729Z,9.60
2022-11-06T18:06:32.694Z,9.60
2022-11-06T18:10:41.473Z,9.60
2022-11-06T18:14:50.215Z,9.60
2022-11-06T18:18:58.996Z,9.60
2022-11-06T18:23:07.574Z,9.60
2022-11-06T18:27:16.451Z,9.60
2022-11-06T18:31:25.140Z,9.60
2022-11-06T18:35:33.811Z,9.60
2022-11-06T18:39:42.373Z,9.70
2022-11-06T18:43:52.815Z,9.70
2022-11-06T18:48:01.438Z,9.70
2022-11-06T18:52:10.067Z,9.70
2022-11-06T18:56:20.645Z,9.70
2022-11-06T19:00:48.521Z,9.70
2022-11-06T19:04:57.191Z,9.70
2022-11-06T19:09:06.320Z,9.70
2022-11-06T19:13:15.021Z,9.70
2022-11-06T19:17:23.752Z,9.70
2022-11-06T19:21:32.717Z,9.70
2022-11-06T19:25:42.978Z,9.70
2022-11-06T19:29:52.635Z,9.70
2022-11-06T19:34:02.156Z,9.70
2022-11-06T19:38:30.037Z,9.70
2022-11-06T19:42:38.974Z,9.70
2022-11-06T19:46:47.557Z,9.70
2022-11-06T19:51:00.256Z,9.70
2022-11-06T19:55:26.646Z,9.70
2022-11-06T19:59:37.553Z,9.80
2022-11-06T20:03:46.182Z,9.80
2022-11-06T20:08:14.370Z,9.80
2022-11-06T20:12:23.746Z,9.80
2022-11-06T20:16:32.769Z,9.80
2022-11-06T20:20:41.310Z,9.80
2022-11-06T20:24:49.880Z,9.90
2022-11-06T20:28:58.537Z,9.90
2022-11-06T20:33:07.060Z,9.90
2022-11-06T20:37:15.690Z,9.90
2022-11-06T20:41:25.492Z,10.00
2022-11-06T20:45:35.740Z,10.00
2022-11-06T20:49:44.341Z,10.00
2022-11-06T20:53:53.422Z,10.10
2022-11-06T20:58:02.111Z,10.20
2022-11-06T21:02:12.280Z,10.20
2022-11-06T21:06:24.191Z,10.30
2022-11-06T21:10:32.820Z,10.40
2022-11-06T21:14:41.439Z,10.50
2022-11-06T21:18:51.155Z,10.60
2022-11-06T21:22:59.821Z,10.70
2022-11-06T21:27:09.654Z,10.80
2022-11-06T21:31:23.031Z,10.90
2022-11-06T21:35:31.595Z,10.90
2022-11-06T21:39:40.190Z,11.00
2022-11-06T21:43:49.108Z,11.00
2022-11-06T21:47:57.729Z,11.00
2022-11-06T21:52:29.093Z,11.00
2022-11-06T21:56:35.169Z,11.00
2022-11-06T22:00:44.312Z,11.00
2022-11-06T22:04:52.837Z,11.00
2022-11-06T22:09:25.185Z,11.00
2022-11-06T22:13:32.263Z,11.00
2022-11-06T22:17:40.893Z,11.10
2022-11-06T22:21:49.523Z,11.10
2022-11-06T22:25:58.150Z,11.10
2022-11-06T22:30:07.805Z,11.10
2022-11-06T22:34:16.343Z,11.10
2022-11-06T22:38:24.907Z,11.10
2022-11-06T22:42:33.502Z,11.10
2022-11-06T22:46:42.320Z,11.00
2022-11-06T22:50:50.845Z,11.10
2022-11-06T22:54:59.472Z,11.10
2022-11-06T22:59:09.229Z,11.10
2022-11-06T23:03:18.422Z,11.10
2022-11-06T23:07:27.304Z,11.10
2022-11-06T23:11:35.932Z,11.10
2022-11-06T23:16:05.350Z,11.10
2022-11-06T23:20:13.894Z,11.10
2022-11-06T23:24:22.504Z,11.10
2022-11-06T23:28:31.132Z,11.10
2022-11-06T23:32:41.096Z,11.10
2022-11-06T23:36:49.619Z,11.10
2022-11-06T23:40:59.822Z,11.10
2022-11-06T23:45:29.714Z,11.20
2022-11-06T23:49:38.340Z,11.20
2022-11-06T23:53:47.205Z,11.20
2022-11-06T23:57:55.806Z,11.20
